sensor_id;sensor_type;location;lat;lon;timestamp;temperature;humidity
4757;DHT22;2392;52.578;13.426;2023-07-20T00:01:39;17.50;99.90
4757;DHT22;2392;52.578;13.426;2023-07-20T00:04:10;17.50;99.90
4757;DHT22;2392;52.578;13.426;2023-07-20T00:06:37;17.50;99.90
4757;DHT22;2392;52.578;13.426;2023-07-20T00:09:06;17.50;99.90
4757;DHT22;2392;52.578;13.426;2023-07-20T00:11:36;17.50;99.90
4757;DHT22;2392;52.578;13.426;2023-07-20T00:14:03;17.50;99.90
4757;DHT22;2392;52.578;13.426;2023-07-20T00:16:32;17.40;99.90
4757;DHT22;2392;52.578;13.426;2023-07-20T00:18:59;17.40;99.90
4757;DHT22;2392;52.578;13.426;2023-07-20T00:21:26;17.30;99.90
4757;DHT22;2392;52.578;13.426;2023-07-20T00:23:53;17.30;99.90
4757;DHT22;2392;52.578;13.426;2023-07-20T00:26:20;17.30;99.90
4757;DHT22;2392;52.578;13.426;2023-07-20T00:28:50;17.30;99.90
4757;DHT22;2392;52.578;13.426;2023-07-20T00:31:18;17.30;99.90
4757;DHT22;2392;52.578;13.426;2023-07-20T00:33:48;17.20;99.90
4757;DHT22;2392;52.578;13.426;2023-07-20T00:36:15;17.20;99.90
4757;DHT22;2392;52.578;13.426;2023-07-20T00:38:42;17.20;99.90
4757;DHT22;2392;52.578;13.426;2023-07-20T00:41:09;17.20;99.90
4757;DHT22;2392;52.578;13.426;2023-07-20T00:43:36;17.20;99.90
4757;DHT22;2392;52.578;13.426;2023-07-20T00:46:03;17.20;99.90
4757;DHT22;2392;52.578;13.426;2023-07-20T00:48:31;17.20;99.90
4757;DHT22;2392;52.578;13.426;2023-07-20T00:51:00;17.20;99.90
4757;DHT22;2392;52.578;13.426;2023-07-20T00:53:28;17.10;99.90
4757;DHT22;2392;52.578;13.426;2023-07-20T00:55:55;17.10;99.90
4757;DHT22;2392;52.578;13.426;2023-07-20T00:58:23;17.10;99.90
4757;DHT22;2392;52.578;13.426;2023-07-20T01:00:51;17.10;99.90
4757;DHT22;2392;52.578;13.426;2023-07-20T01:03:19;17.10;99.90
4757;DHT22;2392;52.578;13.426;2023-07-20T01:05:51;17.10;99.90
4757;DHT22;2392;52.578;13.426;2023-07-20T01:08:27;17.10;99.90
4757;DHT22;2392;52.578;13.426;2023-07-20T01:11:01;17.00;99.90
4757;DHT22;2392;52.578;13.426;2023-07-20T01:13:33;17.00;99.90
4757;DHT22;2392;52.578;13.426;2023-07-20T01:16:01;17.00;99.90
4757;DHT22;2392;52.578;13.426;2023-07-20T01:18:28;17.00;99.90
4757;DHT22;2392;52.578;13.426;2023-07-20T01:20:59;17.00;99.90
4757;DHT22;2392;52.578;13.426;2023-07-20T01:23:50;17.00;99.90
4757;DHT22;2392;52.578;13.426;2023-07-20T01:26:41;17.00;99.90
4757;DHT22;2392;52.578;13.426;2023-07-20T01:29:36;17.00;99.90
4757;DHT22;2392;52.578;13.426;2023-07-20T01:32:08;17.00;99.90
4757;DHT22;2392;52.578;13.426;2023-07-20T01:34:37;17.00;99.90
4757;DHT22;2392;52.578;13.426;2023-07-20T01:37:05;17.00;99.90
4757;DHT22;2392;52.578;13.426;2023-07-20T01:39:33;17.00;99.90
4757;DHT22;2392;52.578;13.426;2023-07-20T01:42:01;17.00;99.90
4757;DHT22;2392;52.578;13.426;2023-07-20T01:44:28;17.10;99.90
4757;DHT22;2392;52.578;13.426;2023-07-20T01:46:55;17.00;99.90
4757;DHT22;2392;52.578;13.426;2023-07-20T01:49:24;17.00;99.90
4757;DHT22;2392;52.578;13.426;2023-07-20T01:51:51;17.00;99.90
4757;DHT22;2392;52.578;13.426;2023-07-20T01:54:18;17.00;99.90
4757;DHT22;2392;52.578;13.426;2023-07-20T01:56:45;17.00;99.90
4757;DHT22;2392;52.578;13.426;2023-07-20T01:59:12;16.90;99.90
4757;DHT22;2392;52.578;13.426;2023-07-20T02:01:39;16.90;99.90
4757;DHT22;2392;52.578;13.426;2023-07-20T02:04:06;16.90;99.90
4757;DHT22;2392;52.578;13.426;2023-07-20T02:06:35;16.90;99.90
4757;DHT22;2392;52.578;13.426;2023-07-20T02:09:02;16.90;99.90
4757;DHT22;2392;52.578;13.426;2023-07-20T02:11:31;16.80;99.90
4757;DHT22;2392;52.578;13.426;2023-07-20T02:13:58;16.80;99.90
4757;DHT22;2392;52.578;13.426;2023-07-20T02:16:25;16.80;99.90
4757;DHT22;2392;52.578;13.426;2023-07-20T02:18:52;16.70;99.90
4757;DHT22;2392;52.578;13.426;2023-07-20T02:21:22;16.70;99.90
4757;DHT22;2392;52.578;13.426;2023-07-20T02:23:51;16.60;99.90
4757;DHT22;2392;52.578;13.426;2023-07-20T02:26:18;16.60;99.90
4757;DHT22;2392;52.578;13.426;2023-07-20T02:28:47;16.60;99.90
4757;DHT22;2392;52.578;13.426;2023-07-20T02:31:17;16.60;99.90
4757;DHT22;2392;52.578;13.426;2023-07-20T02:33:46;16.60;99.90
4757;DHT22;2392;52.578;13.426;2023-07-20T02:36:13;16.60;99.90
4757;DHT22;2392;52.578;13.426;2023-07-20T02:38:42;16.60;99.90
4757;DHT22;2392;52.578;13.426;2023-07-20T02:41:10;16.60;99.90
4757;DHT22;2392;52.578;13.426;2023-07-20T02:43:37;16.60;99.90
4757;DHT22;2392;52.578;13.426;2023-07-20T02:46:04;16.50;99.90
4757;DHT22;2392;52.578;13.426;2023-07-20T02:48:32;16.50;99.90
4757;DHT22;2392;52.578;13.426;2023-07-20T02:50:59;16.50;99.90
4757;DHT22;2392;52.578;13.426;2023-07-20T02:53:26;16.50;99.90
4757;DHT22;2392;52.578;13.426;2023-07-20T02:55:53;16.50;99.90
4757;DHT22;2392;52.578;13.426;2023-07-20T02:58:22;16.40;99.90
4757;DHT22;2392;52.578;13.426;2023-07-20T03:00:48;16.50;99.90
4757;DHT22;2392;52.578;13.426;2023-07-20T03:03:15;16.40;99.90
4757;DHT22;2392;52.578;13.426;2023-07-20T03:05:43;16.40;99.90
4757;DHT22;2392;52.578;13.426;2023-07-20T03:08:10;16.40;99.90
4757;DHT22;2392;52.578;13.426;2023-07-20T03:10:40;16.40;99.90
4757;DHT22;2392;52.578;13.426;2023-07-20T03:13:07;16.30;99.90
4757;DHT22;2392;52.578;13.426;2023-07-20T03:15:35;16.30;99.90
4757;DHT22;2392;52.578;13.426;2023-07-20T03:18:03;16.30;99.90
4757;DHT22;2392;52.578;13.426;2023-07-20T03:20:31;16.30;99.90
4757;DHT22;2392;52.578;13.426;2023-07-20T03:22:58;16.30;99.90
4757;DHT22;2392;52.578;13.426;2023-07-20T03:25:25;16.30;99.90
4757;DHT22;2392;52.578;13.426;2023-07-20T03:27:52;16.30;99.90
4757;DHT22;2392;52.578;13.426;2023-07-20T03:30:20;16.30;99.90
4757;DHT22;2392;52.578;13.426;2023-07-20T03:32:49;16.30;99.90
4757;DHT22;2392;52.578;13.426;2023-07-20T03:35:16;16.40;99.90
4757;DHT22;2392;52.578;13.426;2023-07-20T03:37:43;16.40;99.90
4757;DHT22;2392;52.578;13.426;2023-07-20T03:40:10;16.30;99.90
4757;DHT22;2392;52.578;13.426;2023-07-20T03:42:38;16.30;99.90
4757;DHT22;2392;52.578;13.426;2023-07-20T03:45:06;16.30;99.90
4757;DHT22;2392;52.578;13.426;2023-07-20T03:47:33;16.30;99.90
4757;DHT22;2392;52.578;13.426;2023-07-20T03:50:01;16.30;99.90
4757;DHT22;2392;52.578;13.426;2023-07-20T03:52:29;16.20;99.90
4757;DHT22;2392;52.578;13.426;2023-07-20T03:54:56;16.20;99.90
4757;DHT22;2392;52.578;13.426;2023-07-20T03:57:23;16.20;99.90
4757;DHT22;2392;52.578;13.426;2023-07-20T03:59:50;16.30;99.90
4757;DHT22;2392;52.578;13.426;2023-07-20T04:02:17;16.30;99.90
4757;DHT22;2392;52.578;13.426;2023-07-20T04:04:44;16.30;99.90
4757;DHT22;2392;52.578;13.426;2023-07-20T04:07:13;16.30;99.90
4757;DHT22;2392;52.578;13.426;2023-07-20T04:09:41;16.30;99.90
4757;DHT22;2392;52.578;13.426;2023-07-20T04:12:09;16.30;99.90
4757;DHT22;2392;52.578;13.426;2023-07-20T04:14:36;16.40;99.90
4757;DHT22;2392;52.578;13.426;2023-07-20T04:17:03;16.40;99.90
4757;DHT22;2392;52.578;13.426;2023-07-20T04:19:30;16.40;99.90
4757;DHT22;2392;52.578;13.426;2023-07-20T04:21:57;16.40;99.90
4757;DHT22;2392;52.578;13.426;2023-07-20T04:24:26;16.40;99.90
4757;DHT22;2392;52.578;13.426;2023-07-20T04:26:53;16.50;99.90
4757;DHT22;2392;52.578;13.426;2023-07-20T04:29:20;16.50;99.90
4757;DHT22;2392;52.578;13.426;2023-07-20T04:31:47;16.50;99.90
4757;DHT22;2392;52.578;13.426;2023-07-20T04:34:14;16.50;99.90
4757;DHT22;2392;52.578;13.426;2023-07-20T04:36:41;16.50;99.90
4757;DHT22;2392;52.578;13.426;2023-07-20T04:39:10;16.60;99.90
4757;DHT22;2392;52.578;13.426;2023-07-20T04:41:42;16.50;99.90
4757;DHT22;2392;52.578;13.426;2023-07-20T04:44:09;16.50;99.90
4757;DHT22;2392;52.578;13.426;2023-07-20T04:46:36;16.50;99.90
4757;DHT22;2392;52.578;13.426;2023-07-20T04:49:03;16.60;99.90
4757;DHT22;2392;52.578;13.426;2023-07-20T04:51:35;16.60;99.90
4757;DHT22;2392;52.578;13.426;2023-07-20T04:54:02;16.60;99.90
4757;DHT22;2392;52.578;13.426;2023-07-20T04:56:33;16.70;99.90
4757;DHT22;2392;52.578;13.426;2023-07-20T04:59:04;16.70;99.90
4757;DHT22;2392;52.578;13.426;2023-07-20T05:01:31;16.60;99.90
4757;DHT22;2392;52.578;13.426;2023-07-20T05:03:59;16.70;99.90
4757;DHT22;2392;52.578;13.426;2023-07-20T05:06:26;16.70;99.90
4757;DHT22;2392;52.578;13.426;2023-07-20T05:08:53;16.70;99.90
4757;DHT22;2392;52.578;13.426;2023-07-20T05:11:20;16.70;99.90
4757;DHT22;2392;52.578;13.426;2023-07-20T05:13:47;16.70;99.90
4757;DHT22;2392;52.578;13.426;2023-07-20T05:16:16;16.70;99.90
4757;DHT22;2392;52.578;13.426;2023-07-20T05:18:43;16.70;99.90
4757;DHT22;2392;52.578;13.426;2023-07-20T05:21:10;16.70;99.90
4757;DHT22;2392;52.578;13.426;2023-07-20T05:23:38;16.80;99.90
4757;DHT22;2392;52.578;13.426;2023-07-20T05:26:05;16.80;99.90
4757;DHT22;2392;52.578;13.426;2023-07-20T05:28:32;16.90;99.90
4757;DHT22;2392;52.578;13.426;2023-07-20T05:31:02;16.90;99.90
4757;DHT22;2392;52.578;13.426;2023-07-20T05:33:31;16.90;99.90
4757;DHT22;2392;52.578;13.426;2023-07-20T05:35:58;16.90;99.90
4757;DHT22;2392;52.578;13.426;2023-07-20T05:38:25;17.00;99.90
4757;DHT22;2392;52.578;13.426;2023-07-20T05:40:52;17.00;99.90
4757;DHT22;2392;52.578;13.426;2023-07-20T05:43:19;17.00;99.90
4757;DHT22;2392;52.578;13.426;2023-07-20T05:45:46;17.00;99.90
4757;DHT22;2392;52.578;13.426;2023-07-20T05:48:13;17.10;99.90
4757;DHT22;2392;52.578;13.426;2023-07-20T05:50:43;17.10;99.90
4757;DHT22;2392;52.578;13.426;2023-07-20T05:53:10;17.20;99.90
4757;DHT22;2392;52.578;13.426;2023-07-20T05:55:37;17.20;99.90
4757;DHT22;2392;52.578;13.426;2023-07-20T05:58:05;17.20;99.90
4757;DHT22;2392;52.578;13.426;2023-07-20T06:00:32;17.30;99.90
4757;DHT22;2392;52.578;13.426;2023-07-20T06:02:59;17.30;99.90
4757;DHT22;2392;52.578;13.426;2023-07-20T06:05:27;17.40;99.90
4757;DHT22;2392;52.578;13.426;2023-07-20T06:07:55;17.50;99.90
4757;DHT22;2392;52.578;13.426;2023-07-20T06:10:23;17.50;99.90
4757;DHT22;2392;52.578;13.426;2023-07-20T06:12:50;17.60;99.90
4757;DHT22;2392;52.578;13.426;2023-07-20T06:15:27;17.70;99.90
4757;DHT22;2392;52.578;13.426;2023-07-20T06:17:55;17.60;99.90
4757;DHT22;2392;52.578;13.426;2023-07-20T06:20:23;17.60;99.90
4757;DHT22;2392;52.578;13.426;2023-07-20T06:22:50;17.70;99.90
4757;DHT22;2392;52.578;13.426;2023-07-20T06:25:19;17.70;99.90
4757;DHT22;2392;52.578;13.426;2023-07-20T06:27:46;17.70;99.90
4757;DHT22;2392;52.578;13.426;2023-07-20T06:30:13;17.70;99.90
4757;DHT22;2392;52.578;13.426;2023-07-20T06:32:40;17.70;99.90
4757;DHT22;2392;52.578;13.426;2023-07-20T06:35:08;17.70;99.90
4757;DHT22;2392;52.578;13.426;2023-07-20T06:37:37;17.70;99.90
4757;DHT22;2392;52.578;13.426;2023-07-20T06:40:05;17.70;99.90
4757;DHT22;2392;52.578;13.426;2023-07-20T06:42:33;17.60;99.90
4757;DHT22;2392;52.578;13.426;2023-07-20T06:45:01;17.70;99.90
4757;DHT22;2392;52.578;13.426;2023-07-20T06:47:28;17.60;99.90
4757;DHT22;2392;52.578;13.426;2023-07-20T06:49:55;17.60;99.90
4757;DHT22;2392;52.578;13.426;2023-07-20T06:52:22;17.60;99.90
4757;DHT22;2392;52.578;13.426;2023-07-20T06:54:49;17.60;99.90
4757;DHT22;2392;52.578;13.426;2023-07-20T06:57:16;17.70;99.90
4757;DHT22;2392;52.578;13.426;2023-07-20T06:59:44;17.70;99.90
4757;DHT22;2392;52.578;13.426;2023-07-20T07:02:11;17.90;99.90
4757;DHT22;2392;52.578;13.426;2023-07-20T07:04:38;17.80;99.90
4757;DHT22;2392;52.578;13.426;2023-07-20T07:07:05;17.80;99.90
4757;DHT22;2392;52.578;13.426;2023-07-20T07:09:32;17.80;99.90
4757;DHT22;2392;52.578;13.426;2023-07-20T07:11:59;17.70;99.90
4757;DHT22;2392;52.578;13.426;2023-07-20T07:14:27;17.70;99.90
4757;DHT22;2392;52.578;13.426;2023-07-20T07:16:55;17.70;99.90
4757;DHT22;2392;52.578;13.426;2023-07-20T07:19:22;17.60;99.90
4757;DHT22;2392;52.578;13.426;2023-07-20T07:21:50;17.60;99.90
4757;DHT22;2392;52.578;13.426;2023-07-20T07:24:17;17.70;99.90
4757;DHT22;2392;52.578;13.426;2023-07-20T07:26:44;17.80;99.90
4757;DHT22;2392;52.578;13.426;2023-07-20T07:29:11;18.00;99.90
4757;DHT22;2392;52.578;13.426;2023-07-20T07:31:38;18.20;99.90
4757;DHT22;2392;52.578;13.426;2023-07-20T07:34:06;18.20;99.90
4757;DHT22;2392;52.578;13.426;2023-07-20T07:36:33;18.40;99.90
4757;DHT22;2392;52.578;13.426;2023-07-20T07:39:00;18.40;99.90
4757;DHT22;2392;52.578;13.426;2023-07-20T07:41:27;18.50;99.90
4757;DHT22;2392;52.578;13.426;2023-07-20T07:43:54;18.50;99.90
4757;DHT22;2392;52.578;13.426;2023-07-20T07:46:21;18.50;99.90
4757;DHT22;2392;52.578;13.426;2023-07-20T07:48:48;18.60;99.90
4757;DHT22;2392;52.578;13.426;2023-07-20T07:51:17;18.60;99.90
4757;DHT22;2392;52.578;13.426;2023-07-20T07:53:45;18.60;99.90
4757;DHT22;2392;52.578;13.426;2023-07-20T07:56:12;18.70;99.90
4757;DHT22;2392;52.578;13.426;2023-07-20T07:58:39;18.80;99.90
4757;DHT22;2392;52.578;13.426;2023-07-20T08:01:06;19.00;99.90
4757;DHT22;2392;52.578;13.426;2023-07-20T08:03:35;19.10;99.90
4757;DHT22;2392;52.578;13.426;2023-07-20T08:06:04;19.10;99.90
4757;DHT22;2392;52.578;13.426;2023-07-20T08:08:32;19.20;99.90
4757;DHT22;2392;52.578;13.426;2023-07-20T08:11:00;19.30;99.90
4757;DHT22;2392;52.578;13.426;2023-07-20T08:13:27;19.40;99.90
4757;DHT22;2392;52.578;13.426;2023-07-20T08:15:54;19.40;99.90
4757;DHT22;2392;52.578;13.426;2023-07-20T08:18:21;19.40;99.90
4757;DHT22;2392;52.578;13.426;2023-07-20T08:20:48;19.40;99.90
4757;DHT22;2392;52.578;13.426;2023-07-20T08:23:15;19.40;99.90
4757;DHT22;2392;52.578;13.426;2023-07-20T08:25:44;19.30;99.90
4757;DHT22;2392;52.578;13.426;2023-07-20T08:28:11;19.40;99.90
4757;DHT22;2392;52.578;13.426;2023-07-20T08:30:42;19.50;99.90
4757;DHT22;2392;52.578;13.426;2023-07-20T08:33:10;19.50;99.90
4757;DHT22;2392;52.578;13.426;2023-07-20T08:35:37;19.60;99.90
4757;DHT22;2392;52.578;13.426;2023-07-20T08:38:04;19.60;99.90
4757;DHT22;2392;52.578;13.426;2023-07-20T08:40:32;19.70;99.90
4757;DHT22;2392;52.578;13.426;2023-07-20T08:43:00;19.80;99.90
4757;DHT22;2392;52.578;13.426;2023-07-20T08:45:28;19.80;99.90
4757;DHT22;2392;52.578;13.426;2023-07-20T08:47:58;19.80;99.90
4757;DHT22;2392;52.578;13.426;2023-07-20T08:50:26;19.90;99.90
4757;DHT22;2392;52.578;13.426;2023-07-20T08:52:57;19.90;99.90
4757;DHT22;2392;52.578;13.426;2023-07-20T08:55:25;19.80;99.90
4757;DHT22;2392;52.578;13.426;2023-07-20T08:57:54;19.80;99.90
4757;DHT22;2392;52.578;13.426;2023-07-20T09:00:23;19.80;99.90
4757;DHT22;2392;52.578;13.426;2023-07-20T09:02:52;19.90;99.90
4757;DHT22;2392;52.578;13.426;2023-07-20T09:05:19;20.00;99.90
4757;DHT22;2392;52.578;13.426;2023-07-20T09:07:47;20.20;99.90
4757;DHT22;2392;52.578;13.426;2023-07-20T09:10:14;20.10;99.90
4757;DHT22;2392;52.578;13.426;2023-07-20T09:12:42;20.20;99.90
4757;DHT22;2392;52.578;13.426;2023-07-20T09:15:10;20.20;99.90
4757;DHT22;2392;52.578;13.426;2023-07-20T09:17:39;20.30;99.90
4757;DHT22;2392;52.578;13.426;2023-07-20T09:20:12;20.40;99.90
4757;DHT22;2392;52.578;13.426;2023-07-20T09:22:42;20.40;99.90
4757;DHT22;2392;52.578;13.426;2023-07-20T09:25:12;20.50;99.90
4757;DHT22;2392;52.578;13.426;2023-07-20T09:27:41;20.60;99.90
4757;DHT22;2392;52.578;13.426;2023-07-20T09:30:10;20.70;99.90
4757;DHT22;2392;52.578;13.426;2023-07-20T09:32:42;20.70;99.90
4757;DHT22;2392;52.578;13.426;2023-07-20T09:35:16;20.90;99.90
4757;DHT22;2392;52.578;13.426;2023-07-20T09:37:47;20.90;99.90
4757;DHT22;2392;52.578;13.426;2023-07-20T09:40:18;20.80;99.90
4757;DHT22;2392;52.578;13.426;2023-07-20T09:42:45;20.70;99.90
4757;DHT22;2392;52.578;13.426;2023-07-20T09:45:12;20.50;99.90
4757;DHT22;2392;52.578;13.426;2023-07-20T09:47:41;20.30;99.90
4757;DHT22;2392;52.578;13.426;2023-07-20T09:50:08;20.20;99.90
4757;DHT22;2392;52.578;13.426;2023-07-20T09:52:39;20.00;99.90
4757;DHT22;2392;52.578;13.426;2023-07-20T09:55:07;19.80;99.90
4757;DHT22;2392;52.578;13.426;2023-07-20T09:57:35;19.70;99.90
4757;DHT22;2392;52.578;13.426;2023-07-20T10:00:04;19.60;99.90
4757;DHT22;2392;52.578;13.426;2023-07-20T10:02:42;19.50;99.90
4757;DHT22;2392;52.578;13.426;2023-07-20T10:05:12;19.50;99.90
4757;DHT22;2392;52.578;13.426;2023-07-20T10:07:44;19.50;99.90
4757;DHT22;2392;52.578;13.426;2023-07-20T10:10:14;19.50;99.90
4757;DHT22;2392;52.578;13.426;2023-07-20T10:12:43;19.50;99.90
4757;DHT22;2392;52.578;13.426;2023-07-20T10:15:18;19.50;99.90
4757;DHT22;2392;52.578;13.426;2023-07-20T10:17:57;19.60;99.90
4757;DHT22;2392;52.578;13.426;2023-07-20T10:20:25;19.60;99.90
4757;DHT22;2392;52.578;13.426;2023-07-20T10:22:54;19.50;99.90
4757;DHT22;2392;52.578;13.426;2023-07-20T10:25:23;19.40;99.90
4757;DHT22;2392;52.578;13.426;2023-07-20T10:27:50;19.50;99.90
4757;DHT22;2392;52.578;13.426;2023-07-20T10:30:17;19.40;99.90
4757;DHT22;2392;52.578;13.426;2023-07-20T10:32:45;19.50;99.90
4757;DHT22;2392;52.578;13.426;2023-07-20T10:35:14;19.40;99.90
4757;DHT22;2392;52.578;13.426;2023-07-20T10:37:55;19.60;99.90
4757;DHT22;2392;52.578;13.426;2023-07-20T10:40:30;19.70;99.90
4757;DHT22;2392;52.578;13.426;2023-07-20T10:43:03;19.80;99.90
4757;DHT22;2392;52.578;13.426;2023-07-20T10:45:51;20.00;99.90
4757;DHT22;2392;52.578;13.426;2023-07-20T10:48:21;20.00;99.90
4757;DHT22;2392;52.578;13.426;2023-07-20T10:51:10;20.10;99.90
4757;DHT22;2392;52.578;13.426;2023-07-20T10:53:38;20.30;99.90
4757;DHT22;2392;52.578;13.426;2023-07-20T10:56:13;20.50;99.90
4757;DHT22;2392;52.578;13.426;2023-07-20T10:58:41;20.70;99.90
4757;DHT22;2392;52.578;13.426;2023-07-20T11:01:10;20.80;99.90
4757;DHT22;2392;52.578;13.426;2023-07-20T11:03:40;20.80;99.90
4757;DHT22;2392;52.578;13.426;2023-07-20T11:06:43;20.90;99.90
4757;DHT22;2392;52.578;13.426;2023-07-20T11:09:12;20.90;99.90
4757;DHT22;2392;52.578;13.426;2023-07-20T11:11:41;21.00;99.90
4757;DHT22;2392;52.578;13.426;2023-07-20T11:14:10;21.10;99.90
4757;DHT22;2392;52.578;13.426;2023-07-20T11:16:48;21.20;99.90
4757;DHT22;2392;52.578;13.426;2023-07-20T11:19:17;21.60;99.90
4757;DHT22;2392;52.578;13.426;2023-07-20T11:21:49;22.30;99.90
4757;DHT22;2392;52.578;13.426;2023-07-20T11:24:17;22.90;99.90
4757;DHT22;2392;52.578;13.426;2023-07-20T11:26:45;23.00;99.90
4757;DHT22;2392;52.578;13.426;2023-07-20T11:29:13;23.00;99.90
4757;DHT22;2392;52.578;13.426;2023-07-20T11:31:41;23.10;99.90
4757;DHT22;2392;52.578;13.426;2023-07-20T11:34:11;23.40;99.90
4757;DHT22;2392;52.578;13.426;2023-07-20T11:36:39;23.90;99.90
4757;DHT22;2392;52.578;13.426;2023-07-20T11:39:10;24.10;99.90
4757;DHT22;2392;52.578;13.426;2023-07-20T11:41:37;24.40;99.90
4757;DHT22;2392;52.578;13.426;2023-07-20T11:44:06;24.20;99.90
4757;DHT22;2392;52.578;13.426;2023-07-20T11:46:34;23.80;99.90
4757;DHT22;2392;52.578;13.426;2023-07-20T11:49:01;23.30;99.90
4757;DHT22;2392;52.578;13.426;2023-07-20T11:51:29;23.00;99.90
4757;DHT22;2392;52.578;13.426;2023-07-20T11:53:56;22.80;99.90
4757;DHT22;2392;52.578;13.426;2023-07-20T11:56:25;22.50;99.90
4757;DHT22;2392;52.578;13.426;2023-07-20T11:58:55;22.30;99.90
4757;DHT22;2392;52.578;13.426;2023-07-20T12:01:25;22.00;99.90
4757;DHT22;2392;52.578;13.426;2023-07-20T12:03:55;21.60;99.90
4757;DHT22;2392;52.578;13.426;2023-07-20T12:06:23;21.30;99.90
4757;DHT22;2392;52.578;13.426;2023-07-20T12:08:56;21.20;99.90
4757;DHT22;2392;52.578;13.426;2023-07-20T12:11:35;20.90;99.90
4757;DHT22;2392;52.578;13.426;2023-07-20T12:14:03;20.80;99.90
4757;DHT22;2392;52.578;13.426;2023-07-20T12:16:30;20.50;99.90
4757;DHT22;2392;52.578;13.426;2023-07-20T12:19:01;20.40;99.90
4757;DHT22;2392;52.578;13.426;2023-07-20T12:21:29;20.30;99.90
4757;DHT22;2392;52.578;13.426;2023-07-20T12:23:56;20.20;99.90
4757;DHT22;2392;52.578;13.426;2023-07-20T12:26:24;20.10;99.90
4757;DHT22;2392;52.578;13.426;2023-07-20T12:28:53;20.10;99.90
4757;DHT22;2392;52.578;13.426;2023-07-20T12:31:20;20.20;99.90
4757;DHT22;2392;52.578;13.426;2023-07-20T12:33:48;20.40;99.90
4757;DHT22;2392;52.578;13.426;2023-07-20T12:36:15;20.60;99.90
4757;DHT22;2392;52.578;13.426;2023-07-20T12:38:42;20.90;99.90
4757;DHT22;2392;52.578;13.426;2023-07-20T12:41:10;21.00;99.90
4757;DHT22;2392;52.578;13.426;2023-07-20T12:43:39;21.20;99.90
4757;DHT22;2392;52.578;13.426;2023-07-20T12:46:09;21.30;99.90
4757;DHT22;2392;52.578;13.426;2023-07-20T12:48:37;21.30;99.90
4757;DHT22;2392;52.578;13.426;2023-07-20T12:51:06;21.40;99.90
4757;DHT22;2392;52.578;13.426;2023-07-20T12:53:33;21.40;99.90
4757;DHT22;2392;52.578;13.426;2023-07-20T12:56:01;21.40;99.90
4757;DHT22;2392;52.578;13.426;2023-07-20T12:58:28;21.60;99.90
4757;DHT22;2392;52.578;13.426;2023-07-20T13:00:55;21.80;99.90
4757;DHT22;2392;52.578;13.426;2023-07-20T13:03:23;22.10;99.70
4757;DHT22;2392;52.578;13.426;2023-07-20T13:05:50;22.40;98.60
4757;DHT22;2392;52.578;13.426;2023-07-20T13:08:17;22.70;97.90
4757;DHT22;2392;52.578;13.426;2023-07-20T13:10:45;23.00;98.00
4757;DHT22;2392;52.578;13.426;2023-07-20T13:13:12;23.10;97.50
4757;DHT22;2392;52.578;13.426;2023-07-20T13:15:44;23.20;97.50
4757;DHT22;2392;52.578;13.426;2023-07-20T13:18:12;23.10;97.20
4757;DHT22;2392;52.578;13.426;2023-07-20T13:20:40;23.20;97.50
4757;DHT22;2392;52.578;13.426;2023-07-20T13:23:07;23.20;96.40
4757;DHT22;2392;52.578;13.426;2023-07-20T13:25:34;23.20;96.10
4757;DHT22;2392;52.578;13.426;2023-07-20T13:28:01;23.20;96.40
4757;DHT22;2392;52.578;13.426;2023-07-20T13:30:29;23.20;95.20
4757;DHT22;2392;52.578;13.426;2023-07-20T13:32:56;23.10;94.40
4757;DHT22;2392;52.578;13.426;2023-07-20T13:35:23;23.10;94.90
4757;DHT22;2392;52.578;13.426;2023-07-20T13:37:51;23.00;94.80
4757;DHT22;2392;52.578;13.426;2023-07-20T13:40:18;22.90;94.80
4757;DHT22;2392;52.578;13.426;2023-07-20T13:42:45;22.90;94.50
4757;DHT22;2392;52.578;13.426;2023-07-20T13:45:12;22.90;94.90
4757;DHT22;2392;52.578;13.426;2023-07-20T13:47:39;22.90;95.20
4757;DHT22;2392;52.578;13.426;2023-07-20T13:50:07;22.90;94.40
4757;DHT22;2392;52.578;13.426;2023-07-20T13:52:34;23.00;94.00
4757;DHT22;2392;52.578;13.426;2023-07-20T13:55:04;23.20;94.30
4757;DHT22;2392;52.578;13.426;2023-07-20T13:57:31;23.40;93.70
4757;DHT22;2392;52.578;13.426;2023-07-20T13:59:58;23.70;93.10
4757;DHT22;2392;52.578;13.426;2023-07-20T14:02:26;23.80;93.10
4757;DHT22;2392;52.578;13.426;2023-07-20T14:04:53;23.80;92.50
4757;DHT22;2392;52.578;13.426;2023-07-20T14:07:21;23.80;92.80
4757;DHT22;2392;52.578;13.426;2023-07-20T14:09:48;23.80;91.60
4757;DHT22;2392;52.578;13.426;2023-07-20T14:12:17;23.80;91.20
4757;DHT22;2392;52.578;13.426;2023-07-20T14:14:44;23.80;91.20
4757;DHT22;2392;52.578;13.426;2023-07-20T14:17:11;23.80;91.70
4757;DHT22;2392;52.578;13.426;2023-07-20T14:19:38;24.00;91.30
4757;DHT22;2392;52.578;13.426;2023-07-20T14:22:05;24.40;91.80
4757;DHT22;2392;52.578;13.426;2023-07-20T14:24:32;24.80;90.80
4757;DHT22;2392;52.578;13.426;2023-07-20T14:26:59;24.90;90.20
4757;DHT22;2392;52.578;13.426;2023-07-20T14:29:28;24.80;90.00
4757;DHT22;2392;52.578;13.426;2023-07-20T14:31:57;24.50;89.80
4757;DHT22;2392;52.578;13.426;2023-07-20T14:34:26;24.10;89.70
4757;DHT22;2392;52.578;13.426;2023-07-20T14:36:58;23.80;89.90
4757;DHT22;2392;52.578;13.426;2023-07-20T14:39:25;23.40;90.40
4757;DHT22;2392;52.578;13.426;2023-07-20T14:41:52;23.30;90.70
4757;DHT22;2392;52.578;13.426;2023-07-20T14:44:19;23.20;90.70
4757;DHT22;2392;52.578;13.426;2023-07-20T14:46:48;23.20;90.80
4757;DHT22;2392;52.578;13.426;2023-07-20T14:49:16;23.20;90.80
4757;DHT22;2392;52.578;13.426;2023-07-20T14:51:43;23.10;91.00
4757;DHT22;2392;52.578;13.426;2023-07-20T14:54:12;23.20;91.20
4757;DHT22;2392;52.578;13.426;2023-07-20T14:56:46;23.10;91.00
4757;DHT22;2392;52.578;13.426;2023-07-20T14:59:15;23.20;91.60
4757;DHT22;2392;52.578;13.426;2023-07-20T15:01:43;23.30;91.00
4757;DHT22;2392;52.578;13.426;2023-07-20T15:04:12;23.40;89.90
4757;DHT22;2392;52.578;13.426;2023-07-20T15:06:39;23.40;89.70
4757;DHT22;2392;52.578;13.426;2023-07-20T15:09:06;23.40;90.00
4757;DHT22;2392;52.578;13.426;2023-07-20T15:11:33;23.40;88.90
4757;DHT22;2392;52.578;13.426;2023-07-20T15:14:00;23.30;89.10
4757;DHT22;2392;52.578;13.426;2023-07-20T15:16:28;23.30;89.30
4757;DHT22;2392;52.578;13.426;2023-07-20T15:18:55;23.30;89.10
4757;DHT22;2392;52.578;13.426;2023-07-20T15:21:23;23.50;87.60
4757;DHT22;2392;52.578;13.426;2023-07-20T15:23:51;23.80;87.40
4757;DHT22;2392;52.578;13.426;2023-07-20T15:26:18;24.00;87.90
4757;DHT22;2392;52.578;13.426;2023-07-20T15:28:46;24.20;86.50
4757;DHT22;2392;52.578;13.426;2023-07-20T15:31:13;24.20;87.40
4757;DHT22;2392;52.578;13.426;2023-07-20T15:33:40;24.30;86.40
4757;DHT22;2392;52.578;13.426;2023-07-20T15:36:09;24.10;85.10
4757;DHT22;2392;52.578;13.426;2023-07-20T15:38:37;23.80;85.70
4757;DHT22;2392;52.578;13.426;2023-07-20T15:41:04;23.60;85.80
4757;DHT22;2392;52.578;13.426;2023-07-20T15:43:31;23.30;87.30
4757;DHT22;2392;52.578;13.426;2023-07-20T15:46:05;23.00;87.40
4757;DHT22;2392;52.578;13.426;2023-07-20T15:48:49;22.80;87.80
4757;DHT22;2392;52.578;13.426;2023-07-20T15:51:16;22.70;88.40
4757;DHT22;2392;52.578;13.426;2023-07-20T15:53:44;22.60;88.50